Bradford, New York
Current Conditions -  °F | °C
As of 2:53 AM on Thursday 18 Dec 2014 (Local Time) from KELM Reporting Station
Overcast Overcast  
Wind Chill: 23°   Ceiling: 3900
Heat Index: 32°   Visibility: 10mi
Dew Point: 24°   Wind: 13mph
Humidity: 73%   Direction: 270°W
Pressure: 29.98"   Gusts: 22mph
Location:  42.37°N, 77.11°W
Report Text: KELM 180753Z AUTO 27011G19KT 10SM SCT029 OVC039 00/M04 A2998 RMK AO2 SNE0658 SLP158 P0000 T00001044
Loading
Personal Weather Stations






























Interactive Weather Map New forecast layout! Learn more

10-Day Weather Forecast

Advertisements
Track Severe Weather on mobile